Dallas Fort Worth International Airport


Codes: KDFW/DFW
Name: Dallas Fort Worth International Airport
City: Dallas-Fort Worth
Country: United States
Elevation: 607 ft.
Website:
Wikipedia:

Photos at Dallas Fort Worth International Airport


   Photos courtesy of SpottingLog. You can add your own sightings and photos by signing up for a free trial today.



N292UP, 10-Oct-2023
© Erik van der Eyken

N402HP, 10-Oct-2023
© Erik van der Eyken

N371UP, 10-Oct-2023
© Erik van der Eyken

N368UP, 10-Oct-2023
© Erik van der Eyken

N361UP, 10-Oct-2023
© Erik van der Eyken

N359PX, 10-Oct-2023
© Erik van der Eyken

N319UP, 10-Oct-2023
© Erik van der Eyken

N317US, 10-Oct-2023
© Erik van der Eyken

N171UP, 10-Oct-2023
© Erik van der Eyken

N261NN, 10-Oct-2023
© Erik van der Eyken

N267NN, 10-Oct-2023
© Erik van der Eyken

N121UP, 10-Oct-2023
© Erik van der Eyken


Weather at Dallas Fort Worth International Airport


Time (UTC)DescriptionTempratureWindCloud coverageVisibilityPressureHumidity
21-Feb-2024 03:00Broken Clouds21°C16 mph, S53%10000m1018hPa50%
21-Feb-2024 06:00Scattered Clouds19°C16 mph, S32%10000m1019hPa60%
21-Feb-2024 09:00Clear Sky17°C13 mph, S7%10000m1018hPa75%
21-Feb-2024 12:00Scattered Clouds15°C11 mph, SW26%10000m1018hPa84%
21-Feb-2024 15:00Broken Clouds17°C13 mph, S67%10000m1018hPa77%
21-Feb-2024 18:00Scattered Clouds23°C16 mph, SW36%10000m1016hPa46%
21-Feb-2024 21:00Clear Sky26°C18 mph, S4%10000m1011hPa36%
22-Feb-2024 00:00Few Clouds24°C18 mph, S22%10000m1009hPa48%
22-Feb-2024 03:00Overcast Clouds21°C20 mph, S100%10000m1010hPa64%
22-Feb-2024 06:00Overcast Clouds19°C18 mph, SW91%10000m1009hPa77%
22-Feb-2024 09:00Clear Sky18°C16 mph, SW0%10000m1008hPa84%
22-Feb-2024 12:00Clear Sky17°C13 mph, SW0%10000m1008hPa74%
22-Feb-2024 15:00Clear Sky19°C9 mph, W3%10000m1009hPa31%
22-Feb-2024 18:00Clear Sky23°C13 mph, NW2%10000m1009hPa22%
22-Feb-2024 21:00Clear Sky24°C13 mph, NW0%10000m1009hPa26%
23-Feb-2024 00:00Clear Sky21°C13 mph, N0%10000m1010hPa42%
23-Feb-2024 03:00Clear Sky18°C11 mph, N2%10000m1013hPa50%
23-Feb-2024 06:00Clear Sky16°C11 mph, N1%10000m1015hPa52%
23-Feb-2024 09:00Clear Sky14°C9 mph, N9%10000m1016hPa54%
23-Feb-2024 12:00Scattered Clouds12°C7 mph, N32%10000m1017hPa55%
23-Feb-2024 15:00Broken Clouds14°C7 mph, N75%10000m1019hPa45%
23-Feb-2024 18:00Broken Clouds19°C2 mph, NW65%10000m1019hPa28%
23-Feb-2024 21:00Scattered Clouds21°C4 mph, NW35%10000m1016hPa21%
24-Feb-2024 00:00Scattered Clouds20°C4 mph, NW27%10000m1016hPa25%
24-Feb-2024 03:00Broken Clouds18°C4 mph, W78%10000m1018hPa28%
24-Feb-2024 06:00Overcast Clouds16°C4 mph, SW89%10000m1018hPa33%
24-Feb-2024 09:00Overcast Clouds15°C4 mph, SW97%10000m1018hPa35%
24-Feb-2024 12:00Overcast Clouds14°C4 mph, NW97%10000m1019hPa38%
24-Feb-2024 15:00Broken Clouds16°C2 mph, W55%10000m1021hPa33%
24-Feb-2024 18:00Scattered Clouds21°C7 mph, S28%10000m1021hPa25%
24-Feb-2024 21:00Clear Sky24°C9 mph, S3%10000m1017hPa24%
25-Feb-2024 00:00Clear Sky22°C11 mph, S10%10000m1016hPa30%
25-Feb-2024 03:00Few Clouds19°C13 mph, S13%10000m1017hPa38%
25-Feb-2024 06:00Broken Clouds18°C16 mph, S52%10000m1016hPa45%
25-Feb-2024 09:00Broken Clouds16°C16 mph, S83%10000m1015hPa50%
25-Feb-2024 12:00Broken Clouds15°C16 mph, S83%10000m1014hPa54%
25-Feb-2024 15:00Broken Clouds16°C16 mph, S73%10000m1014hPa64%
25-Feb-2024 18:00Broken Clouds22°C20 mph, SW53%10000m1012hPa50%
25-Feb-2024 21:00Broken Clouds27°C16 mph, SW58%10000m1008hPa34%
26-Feb-2024 00:00Scattered Clouds26°C11 mph, S49%10000m1007hPa37%